createdAt,value
2018-12-24T00:02:08.121Z,88.42
2018-12-24T00:05:12.664Z,88.12
2018-12-24T00:08:17.511Z,88.29
2018-12-24T00:11:22.054Z,88.29
2018-12-24T00:14:26.602Z,87.86
2018-12-24T00:17:31.137Z,87.55
2018-12-24T00:20:36.028Z,87.36
2018-12-24T00:23:40.856Z,87.84
2018-12-24T00:26:45.396Z,87.76
2018-12-24T00:29:49.946Z,87.39
2018-12-24T00:32:54.739Z,86.85
2018-12-24T00:35:59.287Z,86.79
2018-12-24T00:39:05.227Z,86.93
2018-12-24T00:42:15.847Z,86.82
2018-12-24T00:45:16.355Z,86.51
2018-12-24T00:48:20.966Z,86.69
2018-12-24T00:51:25.519Z,86.72
2018-12-24T00:54:30.100Z,87.34
2018-12-24T00:57:34.618Z,87.67
2018-12-24T01:00:39.170Z,87.88
2018-12-24T01:03:43.999Z,87.43
2018-12-24T01:06:49.233Z,87.61
2018-12-24T01:09:54.074Z,86.82
2018-12-24T01:12:58.905Z,86.97
2018-12-24T01:16:03.458Z,86.91
2018-12-24T01:19:08.264Z,86.48
2018-12-24T01:22:12.800Z,86.44
2018-12-24T01:25:17.348Z,86.65
2018-12-24T01:28:21.895Z,86.27
2018-12-24T01:31:26.778Z,85.80
2018-12-24T01:34:31.337Z,85.34
2018-12-24T01:37:35.882Z,85.59
2018-12-24T01:40:40.430Z,85.37
2018-12-24T01:43:44.970Z,85.28
2018-12-24T01:46:49.519Z,85.89
2018-12-24T01:49:54.065Z,85.72
2018-12-24T01:52:58.608Z,85.81
2018-12-24T01:56:03.157Z,86.13
2018-12-24T01:59:08.020Z,86.30
2018-12-24T02:02:12.575Z,87.16
2018-12-24T02:05:17.121Z,88.10
2018-12-24T02:08:21.663Z,88.21
2018-12-24T02:11:26.209Z,88.46
2018-12-24T02:14:31.067Z,88.72
2018-12-24T02:17:35.617Z,88.80
2018-12-24T02:20:40.421Z,79.64
2018-12-24T02:23:45.010Z,78.73
2018-12-24T02:26:49.557Z,81.40
2018-12-24T02:29:54.091Z,82.98
2018-12-24T02:32:58.642Z,84.44
2018-12-24T02:36:03.183Z,84.61
2018-12-24T02:39:07.716Z,84.02
2018-12-24T02:42:12.508Z,83.51
2018-12-24T02:45:17.038Z,83.93
2018-12-24T02:48:21.577Z,84.07
2018-12-24T02:51:26.114Z,83.93
2018-12-24T02:54:30.922Z,85.16
2018-12-24T02:57:35.635Z,84.16
2018-12-24T03:00:40.484Z,84.37
2018-12-24T03:03:45.026Z,83.72
2018-12-24T03:06:49.566Z,84.05
2018-12-24T03:09:54.369Z,84.10
2018-12-24T03:13:02.867Z,83.58
2018-12-24T03:16:05.466Z,83.72
2018-12-24T03:19:10.298Z,84.09
2018-12-24T03:22:14.843Z,83.74
2018-12-24T03:25:19.374Z,83.81
2018-12-24T03:28:23.914Z,84.04
2018-12-24T03:31:28.711Z,83.37
2018-12-24T03:34:33.247Z,84.44
2018-12-24T03:37:37.785Z,84.62
2018-12-24T03:40:42.697Z,84.62
2018-12-24T03:43:47.535Z,84.80
2018-12-24T03:46:52.366Z,85.59
2018-12-24T03:49:56.894Z,85.52
2018-12-24T03:53:01.725Z,84.60
2018-12-24T03:56:06.259Z,84.58
2018-12-24T03:59:11.905Z,84.04
2018-12-24T04:02:16.443Z,83.62
2018-12-24T04:05:20.977Z,84.07
2018-12-24T04:08:25.509Z,83.41
2018-12-24T04:11:30.048Z,82.02
2018-12-24T04:14:34.844Z,82.32
2018-12-24T04:17:39.680Z,81.04
2018-12-24T04:20:44.211Z,81.47
2018-12-24T04:23:49.035Z,81.82
2018-12-24T04:26:53.558Z,82.29
2018-12-24T04:29:58.097Z,83.85
2018-12-24T04:33:02.642Z,83.76
2018-12-24T04:36:07.173Z,83.92
2018-12-24T04:39:11.965Z,84.53
2018-12-24T04:42:16.497Z,84.43
2018-12-24T04:45:21.120Z,84.04
2018-12-24T04:48:25.957Z,83.94
2018-12-24T04:51:30.486Z,84.28
2018-12-24T04:54:35.319Z,84.56
2018-12-24T04:57:39.846Z,84.04
2018-12-24T05:00:44.781Z,84.16
2018-12-24T05:03:49.612Z,83.36
2018-12-24T05:06:54.156Z,83.26
2018-12-24T05:09:58.696Z,83.56
2018-12-24T05:13:03.221Z,83.98
2018-12-24T05:16:08.030Z,83.23
2018-12-24T05:19:12.562Z,83.34
2018-12-24T05:22:17.097Z,83.51
2018-12-24T05:25:21.635Z,83.24
2018-12-24T05:28:26.237Z,82.73
2018-12-24T05:31:30.786Z,80.56
2018-12-24T05:34:35.392Z,80.07
2018-12-24T05:37:39.923Z,80.21
2018-12-24T05:40:44.743Z,81.24
2018-12-24T05:43:49.758Z,80.33
2018-12-24T05:46:54.393Z,79.67
2018-12-24T05:49:58.935Z,80.74
2018-12-24T05:53:03.765Z,80.55
2018-12-24T05:56:08.599Z,80.69
2018-12-24T05:59:13.429Z,80.27
2018-12-24T06:02:17.975Z,80.86
2018-12-24T06:05:22.787Z,81.14
2018-12-24T06:08:27.315Z,80.65
2018-12-24T06:11:31.852Z,80.67
2018-12-24T06:14:36.393Z,80.91
2018-12-24T06:17:41.208Z,81.44
2018-12-24T06:20:46.035Z,81.18
2018-12-24T06:23:50.868Z,80.77
2018-12-24T06:26:55.698Z,80.19
2018-12-24T06:30:00.538Z,80.28
2018-12-24T06:33:05.373Z,80.85
2018-12-24T06:36:10.204Z,81.53
2018-12-24T06:39:14.727Z,80.72
2018-12-24T06:42:19.565Z,81.51
2018-12-24T06:45:24.402Z,81.39
2018-12-24T06:48:28.929Z,81.52
2018-12-24T06:51:33.485Z,82.03
2018-12-24T06:54:38.071Z,82.18
2018-12-24T06:57:42.610Z,82.76
2018-12-24T07:00:47.439Z,81.34
2018-12-24T07:03:52.265Z,82.20
2018-12-24T07:06:56.800Z,82.15
2018-12-24T07:10:01.346Z,80.68
2018-12-24T07:13:06.152Z,81.32
2018-12-24T07:16:10.988Z,81.27
2018-12-24T07:19:15.522Z,81.62
2018-12-24T07:22:20.072Z,80.84
2018-12-24T07:25:24.611Z,79.29
2018-12-24T07:28:29.397Z,81.07
2018-12-24T07:31:33.934Z,80.52
2018-12-24T07:34:38.471Z,79.99
2018-12-24T07:37:43.005Z,79.05
2018-12-24T07:40:47.805Z,79.54
2018-12-24T07:43:52.331Z,78.06
2018-12-24T07:46:57.171Z,77.30
2018-12-24T07:50:01.711Z,76.58
2018-12-24T07:53:06.249Z,78.33
2018-12-24T07:56:11.050Z,78.28
2018-12-24T07:59:15.886Z,77.14
2018-12-24T08:02:20.722Z,76.85
2018-12-24T08:05:25.548Z,77.36
2018-12-24T08:08:30.092Z,78.14
2018-12-24T08:11:34.907Z,76.45
2018-12-24T08:14:39.437Z,76.88
2018-12-24T08:17:44.267Z,76.09
2018-12-24T08:20:49.100Z,76.02
2018-12-24T08:23:53.931Z,76.72
2018-12-24T08:26:58.764Z,76.31
2018-12-24T08:30:03.301Z,75.33
2018-12-24T08:33:07.852Z,76.46
2018-12-24T08:36:13.548Z,75.90
2018-12-24T08:39:18.109Z,74.74
2018-12-24T08:45:35.443Z,76.61
2018-12-24T08:48:40.276Z,77.70
2018-12-24T08:51:44.805Z,77.33
2018-12-24T08:54:49.636Z,78.19
2018-12-24T08:57:54.172Z,77.91
2018-12-24T09:00:58.719Z,78.49
2018-12-24T09:04:03.519Z,77.75
2018-12-24T09:07:08.049Z,78.02
2018-12-24T09:10:12.592Z,78.69
2018-12-24T09:13:17.139Z,79.65
2018-12-24T09:16:21.678Z,80.45
2018-12-24T09:19:26.563Z,79.36
2018-12-24T09:22:31.122Z,79.45
2018-12-24T09:25:35.923Z,79.44
2018-12-24T09:28:40.750Z,79.49
2018-12-24T09:31:45.286Z,79.40
2018-12-24T09:34:50.119Z,79.77
2018-12-24T09:37:54.949Z,79.40
2018-12-24T09:40:59.784Z,78.94
2018-12-24T09:44:04.321Z,78.92
2018-12-24T09:47:09.138Z,79.07
2018-12-24T09:50:13.975Z,78.83
2018-12-24T09:53:18.814Z,78.88
2018-12-24T09:56:23.358Z,78.17
2018-12-24T10:00:11.167Z,78.38
2018-12-24T10:03:16.204Z,76.38
2018-12-24T10:06:21.044Z,76.39
2018-12-24T10:09:25.479Z,76.72
2018-12-24T10:12:29.907Z,73.27
2018-12-24T10:15:34.341Z,71.73
2018-12-24T10:18:39.241Z,71.59
2018-12-24T10:21:44.076Z,72.99
2018-12-24T10:24:48.509Z,73.24
2018-12-24T10:27:52.939Z,73.03
2018-12-24T10:30:57.376Z,74.39
2018-12-24T10:34:01.823Z,74.96
2018-12-24T10:37:06.242Z,75.31
2018-12-24T10:40:13.179Z,75.21
2018-12-24T10:43:17.728Z,75.95
2018-12-24T10:46:22.224Z,76.37
2018-12-24T10:49:26.651Z,76.31
2018-12-24T10:52:31.085Z,75.52
2018-12-24T10:55:35.805Z,74.72
2018-12-24T10:58:40.232Z,73.10
2018-12-24T11:01:44.963Z,71.97
2018-12-24T11:04:49.690Z,72.25
2018-12-24T11:07:54.122Z,70.14
2018-12-24T11:10:58.847Z,70.51
2018-12-24T11:14:03.577Z,71.08
2018-12-24T11:17:08.014Z,71.42
2018-12-24T11:20:12.735Z,72.20
2018-12-24T11:23:17.465Z,73.03
2018-12-24T11:26:22.187Z,72.93
2018-12-24T11:29:26.618Z,74.29
2018-12-24T11:32:31.050Z,73.97
2018-12-24T11:35:35.489Z,75.20
2018-12-24T11:38:39.926Z,76.23
2018-12-24T11:41:44.629Z,75.52
2018-12-24T11:44:49.352Z,76.39
2018-12-24T11:47:54.078Z,76.49
2018-12-24T11:50:58.815Z,77.77
2018-12-24T11:54:03.547Z,76.85
2018-12-24T11:57:07.984Z,77.58
2018-12-24T12:00:12.407Z,79.18
2018-12-24T12:03:16.840Z,78.01
2018-12-24T12:06:21.265Z,76.46
2018-12-24T12:09:25.702Z,76.62
2018-12-24T12:12:30.153Z,75.63
2018-12-24T12:15:42.349Z,76.37
2018-12-24T12:18:41.396Z,75.95
2018-12-24T12:21:45.825Z,77.53
2018-12-24T12:24:50.297Z,76.70
2018-12-24T12:27:54.700Z,75.70
2018-12-24T12:30:59.132Z,77.18
2018-12-24T12:34:03.634Z,75.73
2018-12-24T12:37:08.057Z,76.63
2018-12-24T12:40:12.868Z,77.49
2018-12-24T12:43:17.301Z,75.78
2018-12-24T12:46:21.727Z,76.33
2018-12-24T12:49:26.170Z,75.50
2018-12-24T12:52:30.594Z,75.94
2018-12-24T12:55:35.021Z,76.76
2018-12-24T12:58:39.462Z,76.18
2018-12-24T13:01:44.133Z,76.47
2018-12-24T13:04:48.571Z,77.35
2018-12-24T13:07:53.285Z,75.83
2018-12-24T13:10:57.721Z,76.33
2018-12-24T13:14:02.440Z,76.02
2018-12-24T13:17:07.176Z,75.94
2018-12-24T13:20:11.648Z,71.72
2018-12-24T13:23:16.331Z,72.27
2018-12-24T13:26:21.061Z,70.47
2018-12-24T13:29:25.498Z,73.19
2018-12-24T13:32:29.921Z,74.44
2018-12-24T13:35:34.636Z,74.29
2018-12-24T13:38:39.070Z,74.93
2018-12-24T13:41:43.791Z,75.62
2018-12-24T13:44:48.227Z,75.51
2018-12-24T13:47:52.945Z,76.69
2018-12-24T13:50:57.371Z,76.44
2018-12-24T13:54:01.807Z,74.25
2018-12-24T13:57:06.136Z,69.21
2018-12-24T14:00:10.630Z,60.95
2018-12-24T14:03:15.368Z,60.11
2018-12-24T14:06:19.800Z,62.05
2018-12-24T14:09:24.523Z,63.94
2018-12-24T14:12:28.955Z,64.14
2018-12-24T14:15:33.678Z,68.20
2018-12-24T14:18:38.117Z,70.28
2018-12-24T14:21:42.546Z,70.31
2018-12-24T14:24:46.995Z,71.60
2018-12-24T14:27:51.412Z,72.92
2018-12-24T14:30:56.104Z,74.52
2018-12-24T14:34:00.541Z,74.91
2018-12-24T14:37:04.966Z,74.66
2018-12-24T14:40:09.403Z,75.40
2018-12-24T14:43:14.113Z,75.56
2018-12-24T14:46:25.579Z,75.38
2018-12-24T14:49:25.001Z,75.36
2018-12-24T14:52:29.431Z,77.19
2018-12-24T14:55:33.858Z,78.54
2018-12-24T14:58:38.297Z,78.60
2018-12-24T15:01:42.720Z,78.86
2018-12-24T15:04:47.254Z,78.54
2018-12-24T15:07:51.952Z,78.93
2018-12-24T15:10:56.379Z,79.51
2018-12-24T15:14:00.823Z,79.65
2018-12-24T15:17:05.530Z,80.09
2018-12-24T15:20:09.963Z,80.69
2018-12-24T15:23:14.695Z,78.92
2018-12-24T15:26:19.131Z,79.46
2018-12-24T15:29:23.567Z,78.78
2018-12-24T15:32:28.260Z,77.90
2018-12-24T15:35:32.996Z,77.46
2018-12-24T15:38:37.724Z,77.56
2018-12-24T15:41:42.156Z,77.97
2018-12-24T15:44:46.881Z,77.75
2018-12-24T15:47:51.314Z,77.82
2018-12-24T15:50:56.040Z,78.42
2018-12-24T15:54:01.070Z,76.73
2018-12-24T15:57:05.804Z,75.92
2018-12-24T16:00:10.808Z,76.72
2018-12-24T16:03:15.249Z,74.60
2018-12-24T16:06:20.000Z,76.38
2018-12-24T16:09:24.721Z,76.68
2018-12-24T16:12:29.455Z,74.57
2018-12-24T16:15:33.888Z,75.11
2018-12-24T16:18:38.314Z,74.99
2018-12-24T16:21:42.747Z,76.30
2018-12-24T16:24:47.457Z,75.72
2018-12-24T16:27:51.887Z,76.58
2018-12-24T16:30:56.612Z,77.46
2018-12-24T16:34:01.043Z,77.31
2018-12-24T16:37:05.772Z,76.95
2018-12-24T16:40:10.492Z,77.45
2018-12-24T16:43:14.917Z,79.16
2018-12-24T16:46:19.369Z,79.85
2018-12-24T16:49:24.071Z,79.41
2018-12-24T16:52:28.510Z,79.79
2018-12-24T16:55:33.226Z,80.80
2018-12-24T16:58:37.970Z,81.29
2018-12-24T17:01:42.691Z,81.19
2018-12-24T17:04:47.118Z,80.25
2018-12-24T17:07:51.554Z,80.85
2018-12-24T17:10:56.002Z,81.04
2018-12-24T17:14:00.429Z,81.25
2018-12-24T17:17:07.872Z,81.59
2018-12-24T17:20:11.268Z,81.06
2018-12-24T17:23:16.007Z,81.50
2018-12-24T17:26:20.453Z,81.91
2018-12-24T17:29:24.963Z,81.64
2018-12-24T17:32:29.694Z,82.12
2018-12-24T17:35:34.422Z,82.09
2018-12-24T17:38:39.154Z,81.46
2018-12-24T17:41:43.591Z,79.91
2018-12-24T17:44:48.032Z,79.59
2018-12-24T17:47:52.469Z,80.21
2018-12-24T17:50:56.896Z,80.39
2018-12-24T17:54:01.381Z,79.98
2018-12-24T17:57:05.828Z,79.61
2018-12-24T18:00:10.263Z,78.91
2018-12-24T18:03:14.949Z,78.64
2018-12-24T18:06:19.684Z,78.04
2018-12-24T18:09:24.133Z,77.57
2018-12-24T18:12:28.623Z,77.95
2018-12-24T18:15:33.052Z,78.94
2018-12-24T18:18:37.659Z,79.19
2018-12-24T18:21:42.415Z,79.92
2018-12-24T18:24:46.851Z,80.52
2018-12-24T18:27:51.566Z,81.20
2018-12-24T18:30:57.487Z,81.34
2018-12-24T18:34:02.113Z,81.37
2018-12-24T18:37:06.549Z,81.29
2018-12-24T18:40:11.000Z,81.60
2018-12-24T18:43:15.439Z,81.23
2018-12-24T18:46:20.149Z,80.98
2018-12-24T18:49:24.642Z,80.65
2018-12-24T18:52:29.302Z,80.74
2018-12-24T18:55:33.741Z,80.66
2018-12-24T18:58:38.180Z,80.58
2018-12-24T19:01:42.612Z,80.25
2018-12-24T19:04:47.063Z,80.45
2018-12-24T19:07:51.838Z,80.68
2018-12-24T19:10:56.281Z,80.26
2018-12-24T19:14:00.720Z,80.86
2018-12-24T19:17:05.162Z,80.99
2018-12-24T19:20:10.158Z,80.66
2018-12-24T19:23:14.583Z,80.65
2018-12-24T19:26:19.021Z,79.74
2018-12-24T19:29:23.463Z,79.18
2018-12-24T19:32:27.899Z,79.19
2018-12-24T19:35:32.674Z,79.19
2018-12-24T19:38:37.107Z,79.06
2018-12-24T19:41:41.562Z,79.52
2018-12-24T19:44:46.079Z,79.86
2018-12-24T19:47:50.773Z,80.62
2018-12-24T19:50:55.506Z,80.74
2018-12-24T19:54:00.241Z,80.93
2018-12-24T19:57:04.684Z,80.44
2018-12-24T20:00:09.795Z,80.74
2018-12-24T20:03:14.225Z,80.69
2018-12-24T20:06:18.956Z,80.59
2018-12-24T20:09:23.394Z,80.21
2018-12-24T20:12:28.107Z,80.54
2018-12-24T20:15:32.841Z,80.12
2018-12-24T20:18:37.880Z,79.61
2018-12-24T20:21:42.329Z,79.31
2018-12-24T20:24:46.759Z,79.20
2018-12-24T20:27:51.197Z,78.51
2018-12-24T20:30:55.986Z,77.79
2018-12-24T20:34:00.409Z,78.70
2018-12-24T20:37:04.851Z,79.17
2018-12-24T20:40:09.577Z,79.60
2018-12-24T20:43:17.263Z,80.20
2018-12-24T20:46:21.994Z,79.24
2018-12-24T20:49:26.730Z,77.88
2018-12-24T20:52:31.161Z,79.07
2018-12-24T20:55:35.875Z,78.62
2018-12-24T20:58:40.310Z,79.29
2018-12-24T21:01:44.744Z,79.25
2018-12-24T21:04:49.174Z,79.89
2018-12-24T21:07:53.609Z,79.73
2018-12-24T21:10:58.303Z,78.18
2018-12-24T21:14:02.734Z,78.50
2018-12-24T21:17:07.176Z,78.50
2018-12-24T21:20:11.602Z,78.05
2018-12-24T21:23:16.031Z,77.79
2018-12-24T21:26:20.464Z,78.38
2018-12-24T21:29:25.149Z,78.75
2018-12-24T21:32:29.596Z,79.02
2018-12-24T21:35:34.028Z,80.04
2018-12-24T21:38:38.475Z,79.65
2018-12-24T21:41:42.908Z,79.48
2018-12-24T21:44:47.690Z,79.50
2018-12-24T21:47:52.614Z,79.61
2018-12-24T21:50:57.037Z,79.72
2018-12-24T21:54:01.474Z,80.06
2018-12-24T21:57:07.115Z,79.90
2018-12-24T22:00:11.538Z,79.05
2018-12-24T22:03:16.265Z,78.77
2018-12-24T22:06:21.002Z,78.06
2018-12-24T22:09:25.725Z,78.00
2018-12-24T22:12:30.455Z,78.44
2018-12-24T22:15:35.184Z,79.05
2018-12-24T22:18:39.632Z,79.13
2018-12-24T22:21:44.337Z,79.01
2018-12-24T22:24:49.198Z,79.13
2018-12-24T22:27:53.613Z,79.66
2018-12-24T22:30:58.039Z,78.68
2018-12-24T22:34:02.748Z,79.11
2018-12-24T22:37:07.189Z,79.26
2018-12-24T22:40:11.616Z,79.72
2018-12-24T22:43:16.050Z,79.60
2018-12-24T22:46:20.755Z,79.74
2018-12-24T22:49:25.485Z,79.32
2018-12-24T22:52:30.214Z,79.11
2018-12-24T22:55:34.947Z,79.76
2018-12-24T22:58:39.388Z,80.45
2018-12-24T23:01:43.820Z,80.54
2018-12-24T23:04:48.259Z,80.42
2018-12-24T23:07:52.940Z,80.12
2018-12-24T23:10:57.675Z,79.86
2018-12-24T23:14:02.407Z,79.92
2018-12-24T23:17:07.137Z,80.07
2018-12-24T23:20:11.578Z,79.35
2018-12-24T23:23:16.781Z,78.93
2018-12-24T23:26:21.217Z,79.67
2018-12-24T23:29:25.975Z,79.99
2018-12-24T23:32:30.418Z,80.21
2018-12-24T23:35:34.851Z,80.62
2018-12-24T23:38:39.291Z,81.73
2018-12-24T23:41:44.066Z,81.26
2018-12-24T23:44:48.500Z,81.13
2018-12-24T23:47:52.935Z,80.64
2018-12-24T23:50:57.639Z,80.51
2018-12-24T23:54:02.306Z,80.67
2018-12-24T23:57:07.000Z,79.14
